Time;durP1;ratioP1;P1;durP2;ratioP2;P2;SDS_P1;SDS_P2;PMS_P1;PMS_P2;Temp;Humidity;BMP_temperature;BMP_pressure;BME280_temperature;BME280_humidity;BME280_pressure;Samples;Min_cycle;Max_cycle;Signal;HPM_P1;HPM_P2
2021/03/23 00:00:09;;;;;;;21.63;18.65;;;;;;;4.57;73.80;102532.34;5250215;28;20429;-69
2021/03/23 00:02:44;;;;;;;22.67;19.65;;;;;;;4.62;73.92;102544.31;5260477;28;20071;-70
2021/03/23 00:05:15;;;;;;;23.65;19.42;;;;;;;4.60;74.35;102535.69;5252204;28;20029;-69
2021/03/23 00:07:47;;;;;;;25.48;18.92;;;;;;;4.64;74.09;102541.63;5261071;28;20048;-69
2021/03/23 00:10:22;;;;;;;20.90;18.70;;;;;;;4.61;73.78;102539.13;5260910;28;20017;-69
2021/03/23 00:12:54;;;;;;;20.85;18.65;;;;;;;4.57;74.92;102538.38;5259278;28;20016;-69
2021/03/23 00:15:25;;;;;;;22.38;19.23;;;;;;;4.52;74.42;102542.03;5240074;28;20032;-69
2021/03/23 00:17:57;;;;;;;22.02;19.42;;;;;;;4.54;73.88;102542.81;5242195;28;20033;-69
2021/03/23 00:20:28;;;;;;;23.17;19.35;;;;;;;4.54;74.43;102540.22;5260442;28;20017;-69
2021/03/23 00:22:59;;;;;;;22.30;19.05;;;;;;;4.50;73.97;102536.03;5260848;28;20025;-70
2021/03/23 00:25:31;;;;;;;22.60;18.65;;;;;;;4.51;74.49;102532.53;5258377;28;20032;-69
2021/03/23 00:28:04;;;;;;;21.52;19.23;;;;;;;4.47;74.54;102529.22;5260120;28;20352;-69
2021/03/23 00:30:35;;;;;;;22.70;19.17;;;;;;;4.53;74.32;102533.34;5260666;28;20025;-69
2021/03/23 00:33:06;;;;;;;21.50;19.17;;;;;;;4.56;74.02;102539.28;5260377;28;20035;-69
2021/03/23 00:35:38;;;;;;;24.80;19.38;;;;;;;4.55;74.28;102535.00;5247970;28;20029;-69
2021/03/23 00:38:10;;;;;;;22.83;19.33;;;;;;;4.57;73.98;102540.97;5259760;28;20352;-70
2021/03/23 00:40:41;;;;;;;24.23;19.60;;;;;;;4.60;73.85;102530.50;5259775;28;20108;-69
2021/03/23 00:43:13;;;;;;;23.70;20.73;;;;;;;4.61;74.10;102532.19;5257941;28;20154;-69
2021/03/23 00:45:44;;;;;;;22.13;19.02;;;;;;;4.59;74.00;102530.56;5257362;28;20025;-69
2021/03/23 00:48:17;;;;;;;22.67;19.25;;;;;;;4.65;74.29;102535.53;5259571;28;20386;-70
2021/03/23 00:50:49;;;;;;;23.42;19.70;;;;;;;4.67;74.52;102535.50;5257098;28;20162;-69
2021/03/23 00:53:20;;;;;;;23.25;19.50;;;;;;;4.68;73.20;102527.66;5258897;28;20549;-70
2021/03/23 00:55:51;;;;;;;20.05;17.85;;;;;;;4.69;73.37;102536.28;5259705;28;20024;-70
2021/03/23 00:58:23;;;;;;;23.38;18.60;;;;;;;4.71;73.50;102540.53;5256344;28;20049;-69
2021/03/23 01:00:54;;;;;;;22.48;19.35;;;;;;;4.71;74.08;102530.16;5259301;28;20025;-69
2021/03/23 01:03:25;;;;;;;23.27;19.23;;;;;;;4.71;73.42;102532.75;5260120;28;20020;-69
2021/03/23 01:05:56;;;;;;;23.80;19.67;;;;;;;4.74;73.27;102537.00;5254425;28;20382;-70
2021/03/23 01:08:28;;;;;;;23.15;19.20;;;;;;;4.74;73.37;102532.66;5243646;28;20393;-69
2021/03/23 01:10:59;;;;;;;22.52;19.10;;;;;;;4.75;73.29;102530.91;5259349;28;20029;-69
2021/03/23 01:13:30;;;;;;;25.67;20.52;;;;;;;4.76;73.53;102528.25;5260015;28;20025;-70
2021/03/23 01:16:04;;;;;;;24.08;20.02;;;;;;;4.73;73.46;102523.16;5249407;28;20032;-69
2021/03/23 01:18:35;;;;;;;21.58;18.95;;;;;;;4.78;73.45;102530.81;5257910;28;20379;-69
2021/03/23 01:21:06;;;;;;;21.55;19.35;;;;;;;4.78;72.87;102529.06;5259807;28;20082;-70
2021/03/23 01:23:38;;;;;;;24.92;20.02;;;;;;;4.76;73.21;102525.66;5250912;28;20033;-69
2021/03/23 01:26:09;;;;;;;22.92;19.98;;;;;;;4.79;72.77;102535.94;5247929;28;20029;-69
2021/03/23 01:28:40;;;;;;;26.27;20.15;;;;;;;4.81;73.49;102539.34;5259283;28;20025;-69
2021/03/23 01:31:11;;;;;;;24.90;19.83;;;;;;;4.81;72.80;102541.06;5251874;28;20025;-68
2021/03/23 01:33:43;;;;;;;22.10;19.60;;;;;;;4.83;72.79;102537.53;5238684;28;20037;-68
2021/03/23 01:36:14;;;;;;;22.40;18.58;;;;;;;4.83;73.06;102534.09;5253194;28;20092;-69
2021/03/23 01:38:45;;;;;;;21.70;19.45;;;;;;;4.83;73.09;102534.09;5259549;28;20098;-69
2021/03/23 01:41:16;;;;;;;23.45;18.88;;;;;;;4.83;72.75;102526.28;5247892;28;20046;-69
2021/03/23 01:43:48;;;;;;;23.35;19.38;;;;;;;4.85;72.84;102529.72;5238689;28;20025;-67
2021/03/23 01:46:45;;;;;;;21.02;18.48;;;;;;;4.92;72.90;102514.75;5256582;28;20131;-69
2021/03/23 01:49:23;;;;;;;21.60;19.30;;;;;;;4.88;72.88;102524.38;5237698;28;20116;-69
2021/03/23 01:51:58;;;;;;;24.98;20.23;;;;;;;4.84;73.53;102510.66;5252371;28;20057;-69
2021/03/23 01:54:34;;;;;;;23.33;18.70;;;;;;;4.89;73.65;102515.72;5259193;28;20037;-69
2021/03/23 01:57:09;;;;;;;23.77;19.25;;;;;;;4.90;73.05;102527.78;5257966;28;20037;-69
2021/03/23 01:59:45;;;;;;;26.10;19.45;;;;;;;4.89;72.61;102518.31;5240496;28;20020;-69
2021/03/23 02:02:16;;;;;;;22.67;19.25;;;;;;;4.91;73.29;102513.91;5259082;28;20364;-68
2021/03/23 02:04:47;;;;;;;25.33;19.13;;;;;;;4.92;73.63;102510.38;5258976;28;20032;-69
2021/03/23 02:07:19;;;;;;;23.58;18.17;;;;;;;4.94;73.22;102513.78;5256634;28;20082;-69
2021/03/23 02:09:54;;;;;;;24.58;18.67;;;;;;;4.92;73.34;102504.34;5262705;28;20033;-69
2021/03/23 02:12:29;;;;;;;23.23;18.35;;;;;;;4.96;72.65;102508.53;5263698;28;20032;-69
2021/03/23 02:15:01;;;;;;;24.33;17.65;;;;;;;4.96;72.64;102499.00;5249850;28;20026;-68
2021/03/23 02:17:37;;;;;;;22.65;18.38;;;;;;;4.99;73.01;102500.66;5253019;28;20521;-69
2021/03/23 02:20:15;;;;;;;20.27;17.10;;;;;;;4.93;73.01;102486.13;5262451;28;20037;-69
2021/03/23 02:22:49;;;;;;;20.75;17.40;;;;;;;4.99;72.72;102498.91;5248151;28;20436;-68
2021/03/23 02:25:25;;;;;;;22.40;17.10;;;;;;;5.02;72.61;102490.16;5244246;28;20071;-69
2021/03/23 02:27:56;;;;;;;23.90;17.55;;;;;;;5.01;72.42;102478.06;5258157;28;20296;-69
2021/03/23 02:30:41;;;;;;;23.05;17.08;;;;;;;5.07;72.39;102481.28;5261832;28;20111;-69
2021/03/23 02:33:12;;;;;;;25.40;18.50;;;;;;;4.96;71.88;102469.56;5249907;28;20024;-69
2021/03/23 02:35:44;;;;;;;21.52;17.35;;;;;;;5.06;72.40;102483.94;5261034;28;20032;-69
2021/03/23 02:38:15;;;;;;;24.27;16.90;;;;;;;5.06;72.82;102481.34;5250493;28;20029;-69
2021/03/23 02:40:48;;;;;;;26.20;16.60;;;;;;;5.07;72.62;102483.88;5258789;28;20028;-69
2021/03/23 02:43:20;;;;;;;22.00;16.65;;;;;;;5.09;71.76;102483.84;5241302;28;20040;-69
2021/03/23 02:45:54;;;;;;;22.73;16.60;;;;;;;5.11;72.45;102485.50;5248244;28;20386;-68
2021/03/23 02:48:26;;;;;;;23.73;17.20;;;;;;;5.10;72.43;102482.94;5262546;28;20074;-69
2021/03/23 02:50:57;;;;;;;27.35;17.52;;;;;;;5.09;73.54;102484.69;5258033;28;20033;-69
2021/03/23 02:53:28;;;;;;;23.15;16.77;;;;;;;5.07;72.54;102472.66;5261468;28;20029;-69
2021/03/23 02:56:00;;;;;;;26.45;16.77;;;;;;;5.13;73.06;102483.69;5262356;28;20025;-69
2021/03/23 02:58:31;;;;;;;23.00;16.45;;;;;;;5.11;72.65;102477.69;5262037;28;20494;-69
2021/03/23 03:01:04;;;;;;;23.02;15.85;;;;;;;5.15;72.71;102481.00;5257316;28;20600;-69
2021/03/23 03:03:37;;;;;;;24.15;16.77;;;;;;;5.17;72.26;102478.38;5261689;28;20028;-69
2021/03/23 03:06:10;;;;;;;24.45;16.20;;;;;;;5.12;72.52;102468.16;5260733;28;20171;-69
2021/03/23 03:08:42;;;;;;;23.63;16.20;;;;;;;5.18;72.20;102480.06;5253338;28;20034;-69
2021/03/23 03:11:13;;;;;;;25.40;17.08;;;;;;;5.13;72.56;102472.44;5262251;28;20029;-69
2021/03/23 03:13:44;;;;;;;19.52;15.55;;;;;;;5.15;72.51;102461.97;5261513;28;20029;-69
2021/03/23 03:16:17;;;;;;;21.40;15.70;;;;;;;5.19;72.24;102471.34;5261623;28;20428;-69
2021/03/23 03:18:48;;;;;;;22.23;15.97;;;;;;;5.19;72.61;102468.75;5260432;28;20114;-69
2021/03/23 03:21:20;;;;;;;22.73;16.38;;;;;;;5.18;72.16;102465.31;5261543;28;20311;-69
2021/03/23 03:23:51;;;;;;;21.00;16.50;;;;;;;5.19;73.17;102468.75;5261491;28;20048;-69
2021/03/23 03:26:22;;;;;;;24.73;16.13;;;;;;;5.20;72.75;102467.88;5257870;28;20126;-69
2021/03/23 03:28:54;;;;;;;25.02;16.45;;;;;;;5.21;72.05;102470.41;5259876;28;20025;-68
2021/03/23 03:31:28;;;;;;;24.58;15.93;;;;;;;5.23;72.99;102467.78;5260850;28;20135;-69
2021/03/23 03:34:00;;;;;;;24.83;16.30;;;;;;;5.23;73.18;102465.16;5248594;28;20035;-69
2021/03/23 03:36:33;;;;;;;23.77;15.75;;;;;;;5.25;72.57;102471.16;5252486;28;20095;-69
2021/03/23 03:39:06;;;;;;;21.42;15.75;;;;;;;5.22;72.05;102458.25;5261260;28;20063;-69
2021/03/23 03:41:37;;;;;;;25.50;16.35;;;;;;;5.22;72.27;102464.28;5261429;28;20094;-69
2021/03/23 03:44:08;;;;;;;25.15;16.35;;;;;;;5.25;72.63;102465.94;5244772;28;20497;-69
2021/03/23 03:46:39;;;;;;;26.45;16.25;;;;;;;5.24;72.77;102459.91;5253289;28;20372;-69
2021/03/23 03:49:11;;;;;;;27.02;15.50;;;;;;;5.23;72.77;102463.41;5261394;28;20029;-69
2021/03/23 03:51:42;;;;;;;26.13;15.20;;;;;;;5.26;73.09;102465.03;5249415;28;20050;-69
2021/03/23 03:54:13;;;;;;;19.50;14.82;;;;;;;5.25;72.82;102456.41;5260813;28;20028;-69
2021/03/23 03:56:45;;;;;;;27.25;16.13;;;;;;;5.27;72.49;102449.41;5260344;28;20482;-69
2021/03/23 03:59:16;;;;;;;23.50;15.65;;;;;;;5.27;72.47;102453.75;5260981;28;20478;-69
2021/03/23 04:01:47;;;;;;;23.80;15.20;;;;;;;5.26;72.46;102446.84;5259852;28;20086;-69
2021/03/23 04:04:18;;;;;;;26.85;16.20;;;;;;;5.27;72.95;102444.22;5259540;28;20037;-69
2021/03/23 04:06:50;;;;;;;24.85;16.30;;;;;;;5.27;71.99;102440.78;5261254;28;20043;-69
2021/03/23 04:09:21;;;;;;;24.17;15.45;;;;;;;5.29;72.83;102444.13;5260336;28;20375;-68
2021/03/23 04:11:52;;;;;;;24.67;15.70;;;;;;;5.28;72.56;102439.84;5259732;28;20044;-69
2021/03/23 04:14:23;;;;;;;27.95;16.00;;;;;;;5.29;73.20;102441.53;5260476;28;20028;-69
2021/03/23 04:16:55;;;;;;;24.58;14.95;;;;;;;5.26;73.59;102437.28;5259846;28;20028;-68
2021/03/23 04:19:27;;;;;;;24.75;16.02;;;;;;;5.29;72.85;102442.38;5255728;28;20055;-70
2021/03/23 04:21:58;;;;;;;28.10;15.68;;;;;;;5.30;72.93;102435.44;5240072;28;20573;-69
2021/03/23 04:24:30;;;;;;;29.15;15.75;;;;;;;5.31;72.95;102444.94;5246983;28;20033;-69
2021/03/23 04:27:01;;;;;;;24.95;16.02;;;;;;;5.31;73.35;102438.00;5243875;28;20060;-68
2021/03/23 04:29:32;;;;;;;26.05;16.20;;;;;;;5.32;72.78;102441.44;5238542;28;20044;-69
2021/03/23 04:32:04;;;;;;;31.73;16.20;;;;;;;5.31;72.47;102434.56;5247122;28;20021;-69
2021/03/23 04:34:35;;;;;;;24.98;16.45;;;;;;;5.29;72.81;102428.56;5260219;28;20052;-68
2021/03/23 04:37:06;;;;;;;27.90;15.90;;;;;;;5.31;73.35;102434.56;5254173;28;20447;-69
2021/03/23 04:39:38;;;;;;;24.55;16.77;;;;;;;5.30;72.58;102438.03;5260065;28;20082;-69
2021/03/23 04:42:09;;;;;;;27.90;16.80;;;;;;;5.31;73.77;102437.16;5259781;28;20017;-68
2021/03/23 04:44:41;;;;;;;28.50;16.63;;;;;;;5.28;73.61;102434.66;5247224;28;20471;-69
2021/03/23 04:47:12;;;;;;;26.08;17.45;;;;;;;5.30;73.81;102443.22;5239594;28;20022;-69
2021/03/23 04:49:43;;;;;;;27.27;16.42;;;;;;;5.27;73.59;102436.41;5239537;28;20027;-69
2021/03/23 04:52:14;;;;;;;30.70;17.55;;;;;;;5.29;73.16;102447.59;5244756;28;20086;-69
2021/03/23 04:54:46;;;;;;;27.65;16.95;;;;;;;5.30;73.04;102454.50;5251420;28;20043;-69
2021/03/23 04:57:17;;;;;;;25.40;16.30;;;;;;;5.32;73.37;102436.25;5259689;28;20080;-69
2021/03/23 04:59:48;;;;;;;32.65;17.13;;;;;;;5.31;73.03;102440.59;5259277;28;20421;-69
2021/03/23 05:02:19;;;;;;;30.92;16.08;;;;;;;5.25;73.14;102432.16;5240917;28;20367;-68
2021/03/23 05:04:51;;;;;;;28.08;16.45;;;;;;;5.33;73.14;102437.94;5253692;28;20028;-69
2021/03/23 05:07:23;;;;;;;28.75;16.88;;;;;;;5.31;73.47;102440.59;5239866;28;20021;-69
2021/03/23 05:09:54;;;;;;;27.60;16.90;;;;;;;5.31;73.11;102438.00;5251605;28;20026;-69
2021/03/23 05:12:25;;;;;;;27.10;16.27;;;;;;;5.34;73.38;102440.47;5258955;28;20089;-69
2021/03/23 05:14:57;;;;;;;31.38;15.82;;;;;;;5.33;73.52;102451.75;5259174;28;20054;-69
2021/03/23 05:17:28;;;;;;;28.25;17.00;;;;;;;5.34;74.00;102456.06;5259759;28;20434;-69
2021/03/23 05:19:59;;;;;;;31.08;17.73;;;;;;;5.34;73.38;102450.00;5258521;28;20027;-69
2021/03/23 05:22:31;;;;;;;24.65;15.80;;;;;;;5.35;73.14;102446.53;5259857;28;20024;-69
2021/03/23 05:25:03;;;;;;;27.10;16.77;;;;;;;5.34;74.00;102448.28;5259265;28;20265;-68
2021/03/23 05:27:34;;;;;;;28.58;16.65;;;;;;;5.34;74.01;102456.06;5238229;28;20032;-69
2021/03/23 05:30:07;;;;;;;33.30;18.15;;;;;;;5.33;74.33;102456.97;5255499;28;20028;-69
2021/03/23 05:32:39;;;;;;;;;;;;;;;5.49;73.15;102448.59;5259473;28;20033;-69
2021/03/23 05:35:14;;;;;;;25.20;16.00;;;;;;;5.37;74.48;102460.28;5259088;28;19916;-69
2021/03/23 05:37:46;;;;;;;27.63;16.45;;;;;;;5.35;74.15;102462.97;5247208;28;20034;-69
2021/03/23 05:40:30;;;;;;;26.25;16.67;;;;;;;5.37;73.73;102463.72;5255994;28;20028;-69
2021/03/23 05:43:29;;;;;;;26.25;16.08;;;;;;;5.41;74.33;102461.88;5259648;28;20028;-69
2021/03/23 05:46:17;;;;;;;28.42;17.33;;;;;;;5.42;73.85;102465.31;5257553;28;20245;-69
2021/03/23 05:49:00;;;;;;;26.02;16.80;;;;;;;5.37;73.77;102460.28;5243816;28;20131;-69
2021/03/23 05:51:39;;;;;;;31.35;16.83;;;;;;;5.38;74.58;102469.81;5258677;28;20060;-69
2021/03/23 05:54:16;;;;;;;31.48;17.92;;;;;;;5.36;74.41;102458.59;5245986;28;20037;-69
2021/03/23 05:56:54;;;;;;;26.50;15.68;;;;;;;5.39;74.78;102468.06;5241731;28;20123;-69
2021/03/23 05:59:42;;;;;;;31.33;16.92;;;;;;;5.41;74.49;102467.06;5241270;28;20066;-69
2021/03/23 06:02:52;;;;;;;29.83;17.58;;;;;;;5.45;74.39;102463.44;5258503;28;20021;-69
2021/03/23 06:05:36;;;;;;;29.85;16.50;;;;;;;5.39;74.23;102458.50;5215594;28;20038;-71
2021/03/23 06:08:24;;;;;;;29.58;15.88;;;;;;;5.43;74.27;102472.22;5238321;28;20032;-69
2021/03/23 06:11:05;;;;;;;28.70;16.23;;;;;;;5.45;73.67;102468.66;5238481;28;20499;-69
2021/03/23 06:13:47;;;;;;;30.48;17.48;;;;;;;5.44;74.72;102474.75;5238376;28;20037;-68
2021/03/23 06:16:37;;;;;;;27.52;16.60;;;;;;;5.42;74.25;102476.59;5236833;28;20041;-69
2021/03/23 06:19:33;;;;;;;27.27;16.88;;;;;;;5.48;74.94;102473.75;5241169;28;20404;-69
2021/03/23 06:22:31;;;;;;;33.75;16.80;;;;;;;5.52;74.98;102474.47;5258485;28;20033;-70
2021/03/23 06:25:07;;;;;;;29.02;17.40;;;;;;;5.48;74.77;102473.75;5254718;28;20498;-69
2021/03/23 06:27:46;;;;;;;32.17;16.88;;;;;;;5.49;74.86;102470.25;5240151;28;20032;-69
2021/03/23 06:30:39;;;;;;;26.98;16.88;;;;;;;5.53;74.75;102474.44;5255737;28;20548;-69
2021/03/23 06:33:14;;;;;;;27.08;16.25;;;;;;;5.57;75.05;102467.38;5259120;28;20092;-69
2021/03/23 06:35:48;;;;;;;27.63;17.33;;;;;;;5.58;75.05;102464.69;5254044;28;20359;-71
2021/03/23 06:38:30;;;;;;;31.77;17.13;;;;;;;5.65;75.15;102469.69;5258472;28;20032;-69
2021/03/23 06:41:13;;;;;;;28.50;16.27;;;;;;;5.65;74.86;102469.69;5237815;28;20112;-70
2021/03/23 06:44:13;;;;;;;31.17;18.07;;;;;;;5.70;74.17;102476.38;5237381;28;20124;-72
2021/03/23 06:46:47;;;;;;;30.00;18.40;;;;;;;5.70;74.60;102480.75;5251171;28;20486;-68
2021/03/23 06:49:27;;;;;;;34.17;19.20;;;;;;;5.73;74.64;102488.44;5255702;28;20486;-69
2021/03/23 06:52:11;;;;;;;27.73;16.95;;;;;;;5.80;75.49;102487.28;5252720;28;20451;-69
2021/03/23 06:54:43;;;;;;;35.80;17.55;;;;;;;5.82;75.09;102488.91;5257009;28;20029;-69
2021/03/23 06:57:19;;;;;;;31.77;17.90;;;;;;;5.85;74.96;102490.56;5256000;28;20780;-69
2021/03/23 07:00:04;;;;;;;27.38;17.52;;;;;;;5.94;75.05;102494.56;5256833;28;20271;-68
2021/03/23 07:02:41;;;;;;;32.58;17.73;;;;;;;5.99;75.05;102500.47;5257239;28;20056;-68
2021/03/23 07:05:30;;;;;;;32.90;17.95;;;;;;;6.07;74.64;102503.63;5255793;28;20044;-71
2021/03/23 07:08:02;;;;;;;32.10;18.10;;;;;;;6.07;74.68;102504.47;5261900;28;20075;-68
2021/03/23 07:10:41;;;;;;;29.10;17.98;;;;;;;6.11;73.98;102504.34;5261544;28;20378;-71
2021/03/23 07:13:31;;;;;;;29.48;17.92;;;;;;;6.22;74.84;102512.56;5255967;28;20025;-68
2021/03/23 07:16:28;;;;;;;33.33;18.83;;;;;;;6.28;74.22;102504.50;5254167;28;20031;-69
2021/03/23 07:19:09;;;;;;;32.53;18.90;;;;;;;6.30;74.24;102508.75;5258666;28;20056;-69
2021/03/23 07:21:48;;;;;;;28.35;18.52;;;;;;;6.33;74.04;102505.19;5244941;28;20037;-69
2021/03/23 07:24:21;;;;;;;27.95;18.10;;;;;;;6.37;74.53;102508.50;5260065;28;20108;-69
2021/03/23 07:27:07;;;;;;;29.37;19.57;;;;;;;6.44;74.32;102505.59;5250364;28;20025;-70
2021/03/23 07:29:39;;;;;;;28.15;17.35;;;;;;;6.47;74.26;102505.44;5261226;28;20033;-70
2021/03/23 07:32:17;;;;;;;32.30;18.70;;;;;;;6.56;73.99;102499.03;5244906;28;20551;-70
2021/03/23 07:34:57;;;;;;;31.13;19.50;;;;;;;6.57;74.11;102496.34;5250169;28;20481;-70
2021/03/23 07:37:41;;;;;;;32.83;19.20;;;;;;;6.69;73.97;102508.00;5250426;28;20026;-70
2021/03/23 07:40:38;;;;;;;30.60;18.30;;;;;;;6.76;73.98;102504.25;5256812;28;20383;-70
2021/03/23 07:43:45;;;;;;;30.15;19.40;;;;;;;6.77;73.69;102512.91;5256752;28;20029;-70
2021/03/23 07:46:26;;;;;;;31.98;20.25;;;;;;;6.76;73.86;102517.28;5257363;28;20119;-70
2021/03/23 07:49:06;;;;;;;30.00;20.67;;;;;;;6.78;74.14;102517.19;5258476;28;20493;-69
2021/03/23 07:51:43;;;;;;;30.42;20.50;;;;;;;6.78;74.08;102522.41;5253169;28;20079;-69
2021/03/23 07:54:21;;;;;;;30.85;21.30;;;;;;;6.81;74.33;102517.91;5258635;28;20036;-69
2021/03/23 07:57:14;;;;;;;32.60;22.50;;;;;;;6.86;74.25;102517.75;5249823;28;20033;-69
2021/03/23 08:00:12;;;;;;;37.75;23.63;;;;;;;6.88;74.59;102515.06;5251282;28;20047;-69
2021/03/23 08:02:57;;;;;;;34.60;22.25;;;;;;;6.90;74.35;102514.09;5255559;28;20041;-69
2021/03/23 08:05:55;;;;;;;39.15;23.38;;;;;;;6.98;74.78;102512.00;5254350;28;20059;-69
2021/03/23 08:08:45;;;;;;;35.42;23.58;;;;;;;7.06;75.04;102512.50;5256576;28;20112;-69
2021/03/23 08:11:47;;;;;;;35.42;24.52;;;;;;;7.19;74.45;102520.63;5253186;28;20094;-69
2021/03/23 08:14:21;;;;;;;32.13;23.38;;;;;;;7.21;73.57;102511.00;5245576;28;20041;-69
2021/03/23 08:17:20;;;;;;;36.22;24.25;;;;;;;7.28;74.04;102519.41;5253896;28;20032;-69
2021/03/23 08:20:29;;;;;;;34.13;24.63;;;;;;;7.38;73.14;102525.88;5257348;28;20040;-69
2021/03/23 08:23:25;;;;;;;42.35;25.92;;;;;;;7.44;72.98;102511.75;5250677;28;20029;-69
2021/03/23 08:26:01;;;;;;;38.08;26.52;;;;;;;7.53;73.67;102517.38;5253992;28;20029;-70
2021/03/23 08:28:47;;;;;;;40.20;26.77;;;;;;;7.57;73.03;102523.28;5254475;28;20098;-70
2021/03/23 08:31:25;;;;;;;42.88;27.88;;;;;;;7.61;72.74;102521.41;5249010;28;20494;-70
2021/03/23 08:34:19;;;;;;;40.97;29.25;;;;;;;7.56;72.51;102526.81;5252737;28;20029;-70
2021/03/23 08:37:08;;;;;;;;;;;;;;;7.73;72.61;102546.94;5258643;28;20029;-69
2021/03/23 08:40:05;;;;;;;42.42;29.05;;;;;;;7.63;72.71;102535.22;5256378;28;19924;-69
2021/03/23 08:42:37;;;;;;;42.70;30.30;;;;;;;7.73;73.02;102526.06;5253192;28;20079;-70
2021/03/23 08:45:15;;;;;;;47.03;33.85;;;;;;;7.91;72.81;102532.19;5257138;28;20020;-69
2021/03/23 08:47:49;;;;;;;53.40;33.05;;;;;;;8.04;71.98;102531.56;5257733;28;20090;-70
2021/03/23 08:50:25;;;;;;;48.83;35.30;;;;;;;8.18;72.24;102530.03;5247501;28;20025;-70
2021/03/23 08:53:00;;;;;;;48.67;35.60;;;;;;;8.32;71.62;102524.16;5251889;28;20029;-72
2021/03/23 08:55:31;;;;;;;50.22;37.20;;;;;;;8.41;70.22;102524.59;5248379;28;20029;-70
2021/03/23 08:58:17;;;;;;;52.67;37.05;;;;;;;8.56;70.34;102515.19;5275594;22;20076;-73
2021/03/23 09:00:53;;;;;;;47.25;35.25;;;;;;;8.53;70.09;102515.31;5251023;28;20070;-73
2021/03/23 09:03:42;;;;;;;49.67;36.88;;;;;;;8.66;69.36;102515.53;5252244;28;20037;-73
2021/03/23 09:06:47;;;;;;;47.55;36.42;;;;;;;8.73;69.35;102527.38;5257361;28;20048;-72
2021/03/23 09:09:30;;;;;;;50.22;36.45;;;;;;;8.75;69.03;102523.78;5252777;28;20432;-72
2021/03/23 09:12:34;;;;;;;49.22;37.00;;;;;;;8.65;69.06;102519.09;5255777;28;20385;-72
2021/03/23 09:15:09;;;;;;;53.25;35.80;;;;;;;8.53;68.88;102525.78;5256350;28;20397;-72
2021/03/23 09:18:02;;;;;;;53.78;37.22;;;;;;;8.55;69.24;102533.53;5257097;28;20021;-72
2021/03/23 09:20:37;;;;;;;49.17;38.13;;;;;;;8.39;68.71;102533.44;5258367;28;20536;-72
2021/03/23 09:23:18;;;;;;;54.28;39.00;;;;;;;8.37;69.31;102541.34;5257712;28;20047;-72
2021/03/23 09:26:06;;;;;;;51.13;37.95;;;;;;;8.37;69.43;102541.34;5251057;28;20036;-72
2021/03/23 09:28:44;;;;;;;50.75;38.17;;;;;;;8.53;69.29;102550.13;5247342;28;20025;-72
2021/03/23 09:31:37;;;;;;;53.33;39.83;;;;;;;8.50;68.55;102538.97;5258255;28;20074;-72
2021/03/23 09:34:46;;;;;;;51.03;40.03;;;;;;;8.51;68.87;102532.81;5241629;28;20444;-72
2021/03/23 09:37:46;;;;;;;53.97;40.05;;;;;;;8.48;68.45;102531.19;5256533;28;20033;-72
2021/03/23 09:40:17;;;;;;;52.67;40.80;;;;;;;8.61;68.40;102538.44;5256861;28;20043;-73
2021/03/23 09:42:51;;;;;;;57.08;42.03;;;;;;;8.76;68.38;102537.69;5257248;28;20037;-73
2021/03/23 09:45:53;;;;;;;57.72;41.50;;;;;;;8.84;68.76;102539.91;5256496;28;20036;-73
2021/03/23 09:48:36;;;;;;;56.00;43.15;;;;;;;9.01;67.90;102543.34;5257319;28;20074;-73
2021/03/23 09:51:31;;;;;;;57.85;43.17;;;;;;;9.14;67.26;102554.03;5257961;28;20020;-73
2021/03/23 09:54:02;;;;;;;57.05;44.38;;;;;;;9.21;67.05;102537.13;5254021;28;20025;-73
2021/03/23 09:56:37;;;;;;;59.70;45.95;;;;;;;9.22;66.78;102553.66;5255413;28;20504;-73
2021/03/23 09:59:13;;;;;;;60.17;45.30;;;;;;;9.26;66.61;102547.34;5256818;28;20052;-73
2021/03/23 10:01:52;;;;;;;60.60;45.60;;;;;;;9.31;67.14;102553.16;5258067;28;20021;-73
2021/03/23 10:04:30;;;;;;;64.75;46.47;;;;;;;9.30;67.27;102553.25;5253378;28;20028;-73
2021/03/23 10:07:03;;;;;;;65.65;47.20;;;;;;;9.23;67.43;102553.56;5256091;28;20494;-73
2021/03/23 10:09:37;;;;;;;65.15;47.58;;;;;;;9.25;68.07;102566.56;5256435;28;20056;-73
2021/03/23 10:12:26;;;;;;;66.05;46.83;;;;;;;9.44;67.97;102556.84;5257844;28;20045;-73
2021/03/23 10:14:58;;;;;;;61.00;45.17;;;;;;;9.56;67.40;102552.72;5254066;28;20952;-73
2021/03/23 10:17:29;;;;;;;60.40;44.78;;;;;;;9.61;67.45;102549.84;5258166;28;20108;-73
2021/03/23 10:20:00;;;;;;;55.50;42.28;;;;;;;9.66;66.68;102545.22;5256802;28;20025;-73
2021/03/23 10:22:36;;;;;;;58.22;41.03;;;;;;;9.73;66.28;102543.94;5258871;28;20426;-74
2021/03/23 10:25:17;;;;;;;58.72;43.08;;;;;;;9.73;65.95;102525.63;5257581;28;20533;-73
2021/03/23 10:27:50;;;;;;;54.97;40.50;;;;;;;9.83;66.03;102531.22;5258475;28;20128;-73
2021/03/23 10:30:27;;;;;;;60.72;44.15;;;;;;;9.93;66.63;102529.81;5261610;28;20020;-73
2021/03/23 10:33:17;;;;;;;58.33;42.03;;;;;;;10.15;66.43;102537.28;5262422;28;20036;-73
2021/03/23 10:35:51;;;;;;;59.85;42.53;;;;;;;10.19;66.19;102529.19;5260843;28;20421;-73
2021/03/23 10:38:28;;;;;;;52.15;37.95;;;;;;;10.28;65.33;102522.63;5260564;28;20512;-73
2021/03/23 10:41:23;;;;;;;60.60;41.30;;;;;;;10.29;65.52;102528.69;5263012;28;20404;-72
2021/03/23 10:44:12;;;;;;;55.88;41.25;;;;;;;10.32;65.53;102526.75;5248423;28;20428;-73
2021/03/23 10:46:45;;;;;;;53.05;38.80;;;;;;;10.34;65.77;102524.03;5260887;28;20029;-73
2021/03/23 10:49:20;;;;;;;49.75;38.97;;;;;;;10.45;64.90;102513.78;5261586;28;20025;-73
2021/03/23 10:52:11;;;;;;;50.40;39.28;;;;;;;10.40;64.07;102511.44;5261799;28;20060;-73
2021/03/23 10:54:43;;;;;;;54.08;39.58;;;;;;;10.53;64.76;102510.72;5261224;28;20547;-73
2021/03/23 10:57:24;;;;;;;51.03;39.40;;;;;;;10.59;64.54;102518.22;5257372;28;20049;-73
2021/03/23 11:00:13;;;;;;;53.60;39.15;;;;;;;10.55;64.21;102501.00;5258022;28;20055;-73
2021/03/23 11:02:45;;;;;;;48.42;38.60;;;;;;;10.63;64.13;102509.25;5259115;28;20035;-73
2021/03/23 11:05:22;;;;;;;47.22;36.78;;;;;;;10.70;64.15;102507.97;5261635;28;20514;-74
2021/03/23 11:08:02;;;;;;;49.25;38.00;;;;;;;10.75;63.81;102518.19;5260519;28;20037;-73
2021/03/23 11:10:34;;;;;;;53.33;38.47;;;;;;;10.77;63.67;102511.06;5260865;28;20488;-72
2021/03/23 11:13:06;;;;;;;47.37;36.97;;;;;;;10.81;63.35;102516.03;5263591;28;20039;-73
2021/03/23 11:15:43;;;;;;;48.25;37.50;;;;;;;10.90;63.48;102510.25;5260296;28;20295;-73
2021/03/23 11:18:36;;;;;;;51.20;38.45;;;;;;;11.07;63.83;102516.28;5253509;28;20033;-73
2021/03/23 11:21:11;;;;;;;50.65;35.83;;;;;;;10.98;63.20;102511.56;5258798;28;20425;-73
2021/03/23 11:23:47;;;;;;;49.63;35.92;;;;;;;10.88;63.62;102517.38;5256511;28;20025;-73
2021/03/23 11:26:28;;;;;;;46.55;36.75;;;;;;;11.22;63.89;102504.00;5257616;28;20048;-73
2021/03/23 11:29:03;;;;;;;46.50;35.00;;;;;;;11.09;62.41;102496.03;5256331;28;20020;-73
2021/03/23 11:31:35;;;;;;;47.58;35.00;;;;;;;11.16;63.33;102498.19;5260102;28;20128;-73
2021/03/23 11:34:08;;;;;;;49.05;35.72;;;;;;;11.03;63.12;102499.03;5254787;28;20482;-73
2021/03/23 11:36:39;;;;;;;46.47;35.17;;;;;;;11.09;63.05;102502.09;5261139;28;20029;-73
2021/03/23 11:39:13;;;;;;;44.55;35.20;;;;;;;11.15;63.70;102503.53;5260042;28;20116;-73
2021/03/23 11:42:01;;;;;;;49.78;36.38;;;;;;;11.27;63.03;102494.91;5259545;28;20060;-73
2021/03/23 11:44:43;;;;;;;46.15;35.85;;;;;;;11.13;63.10;102492.28;5260604;28;20385;-73
2021/03/23 11:47:28;;;;;;;47.25;34.60;;;;;;;11.34;62.90;102488.34;5260737;28;20029;-73
2021/03/23 11:50:06;;;;;;;41.70;33.88;;;;;;;11.40;62.47;102482.72;5260975;28;20021;-72
2021/03/23 11:52:39;;;;;;;42.95;33.60;;;;;;;11.44;62.31;102478.13;5260254;28;20044;-74
2021/03/23 11:55:15;;;;;;;42.15;31.27;;;;;;;11.56;61.10;102472.13;5254958;28;20514;-72
2021/03/23 11:57:46;;;;;;;44.42;32.05;;;;;;;11.66;61.28;102475.81;5257451;28;20524;-73
2021/03/23 12:00:20;;;;;;;40.45;32.72;;;;;;;11.84;61.93;102467.75;5260557;28;20033;-72
2021/03/23 12:02:51;;;;;;;43.58;32.58;;;;;;;11.91;60.79;102472.50;5260620;28;20021;-71